createdAt,value
2023-04-07T00:01:05.689Z,100.00
2023-04-07T00:03:33.879Z,100.00
2023-04-07T00:06:01.670Z,100.00
2023-04-07T00:08:30.808Z,100.00
2023-04-07T00:10:58.532Z,100.00
2023-04-07T00:13:26.271Z,100.00
2023-04-07T00:15:54.014Z,100.00
2023-04-07T00:18:21.689Z,100.00
2023-04-07T00:20:49.456Z,100.00
2023-04-07T00:23:17.101Z,100.00
2023-04-07T00:25:46.407Z,100.00
2023-04-07T00:28:14.072Z,100.00
2023-04-07T00:30:41.748Z,100.00
2023-04-07T00:33:09.946Z,100.00
2023-04-07T00:35:37.796Z,100.00
2023-04-07T00:38:05.511Z,100.00
2023-04-07T00:40:33.331Z,100.00
2023-04-07T00:43:02.365Z,100.00
2023-04-07T00:45:30.052Z,100.00
2023-04-07T00:47:58.377Z,100.00
2023-04-07T00:50:26.652Z,100.00
2023-04-07T00:52:56.950Z,100.00
2023-04-07T00:55:24.748Z,100.00
2023-04-07T00:57:52.834Z,100.00
2023-04-07T01:00:22.081Z,100.00
2023-04-07T01:02:58.869Z,100.00
2023-04-07T01:05:36.383Z,100.00
2023-04-07T01:08:14.089Z,100.00
2023-04-07T01:10:47.579Z,100.00
2023-04-07T01:13:24.914Z,100.00
2023-04-07T01:15:57.479Z,100.00
2023-04-07T01:18:29.394Z,100.00
2023-04-07T01:21:02.594Z,100.00
2023-04-07T01:23:51.703Z,100.00
2023-04-07T01:26:22.785Z,100.00
2023-04-07T01:29:08.713Z,100.00
2023-04-07T01:31:40.456Z,100.00
2023-04-07T01:34:11.527Z,100.00
2023-04-07T01:36:39.447Z,100.00
2023-04-07T01:39:08.359Z,100.00
2023-04-07T01:41:38.677Z,100.00
2023-04-07T01:44:09.476Z,100.00
2023-04-07T01:46:38.623Z,100.00
2023-04-07T01:49:08.655Z,100.00
2023-04-07T01:51:37.175Z,100.00
2023-04-07T01:54:06.260Z,100.00
2023-04-07T01:56:34.399Z,100.00
2023-04-07T01:59:02.101Z,100.00
2023-04-07T02:01:30.994Z,100.00
2023-04-07T02:04:07.834Z,100.00
2023-04-07T02:06:41.636Z,100.00
2023-04-07T02:09:12.393Z,100.00
2023-04-07T02:11:43.614Z,100.00
2023-04-07T02:14:12.376Z,100.00
2023-04-07T02:16:42.735Z,100.00
2023-04-07T02:19:12.193Z,100.00
2023-04-07T02:21:41.368Z,100.00
2023-04-07T02:24:09.714Z,100.00
2023-04-07T02:26:37.511Z,100.00
2023-04-07T02:29:05.776Z,100.00
2023-04-07T02:31:33.610Z,100.00
2023-04-07T02:34:01.364Z,100.00
2023-04-07T02:36:31.325Z,100.00
2023-04-07T02:38:59.624Z,100.00
2023-04-07T02:41:27.521Z,100.00
2023-04-07T02:43:55.413Z,100.00
2023-04-07T02:46:23.309Z,100.00
2023-04-07T02:48:51.827Z,100.00
2023-04-07T02:51:19.603Z,100.00
2023-04-07T02:53:48.637Z,100.00
2023-04-07T02:56:16.800Z,100.00
2023-04-07T02:58:44.533Z,100.00
2023-04-07T03:01:12.250Z,100.00
2023-04-07T03:03:42.296Z,100.00
2023-04-07T03:06:10.193Z,100.00
2023-04-07T03:08:37.899Z,100.00
2023-04-07T03:11:07.088Z,100.00
2023-04-07T03:13:34.810Z,100.00
2023-04-07T03:16:02.502Z,100.00
2023-04-07T03:18:30.297Z,100.00
2023-04-07T03:20:58.339Z,100.00
2023-04-07T03:23:34.781Z,100.00
2023-04-07T03:26:02.466Z,100.00
2023-04-07T03:28:32.006Z,100.00
2023-04-07T03:30:59.733Z,100.00
2023-04-07T03:33:27.448Z,100.00
2023-04-07T03:35:55.158Z,100.00
2023-04-07T03:38:23.752Z,100.00
2023-04-07T03:40:51.544Z,100.00
2023-04-07T03:43:19.274Z,100.00
2023-04-07T03:45:48.457Z,100.00
2023-04-07T03:48:16.150Z,100.00
2023-04-07T03:50:43.856Z,100.00
2023-04-07T03:53:11.524Z,100.00
2023-04-07T03:55:39.335Z,100.00
2023-04-07T03:58:07.110Z,100.00
2023-04-07T04:00:35.099Z,100.00
2023-04-07T04:03:04.491Z,100.00
2023-04-07T04:05:32.178Z,100.00
2023-04-07T04:07:59.831Z,100.00
2023-04-07T04:10:27.558Z,100.00
2023-04-07T04:12:55.631Z,100.00
2023-04-07T04:15:23.501Z,100.00
2023-04-07T04:17:51.250Z,100.00
2023-04-07T04:20:22.149Z,100.00
2023-04-07T04:22:49.857Z,100.00
2023-04-07T04:25:18.011Z,100.00
2023-04-07T04:27:45.773Z,100.00
2023-04-07T04:30:13.709Z,100.00
2023-04-07T04:32:41.421Z,100.00
2023-04-07T04:35:10.059Z,100.00
2023-04-07T04:37:39.104Z,100.00
2023-04-07T04:40:08.594Z,100.00
2023-04-07T04:42:37.758Z,100.00
2023-04-07T04:45:06.640Z,100.00
2023-04-07T04:47:38.980Z,100.00
2023-04-07T04:50:07.213Z,100.00
2023-04-07T04:52:35.522Z,100.00
2023-04-07T04:55:04.913Z,100.00
2023-04-07T04:57:34.694Z,100.00
2023-04-07T05:00:02.829Z,100.00
2023-04-07T05:02:30.832Z,100.00
2023-04-07T05:04:58.778Z,100.00
2023-04-07T05:07:26.642Z,100.00
2023-04-07T05:09:54.309Z,100.00
2023-04-07T05:12:23.394Z,100.00
2023-04-07T05:14:51.228Z,100.00
2023-04-07T05:17:18.950Z,100.00
2023-04-07T05:19:46.719Z,100.00
2023-04-07T05:22:14.405Z,100.00
2023-04-07T05:24:42.098Z,100.00
2023-04-07T05:27:10.082Z,100.00
2023-04-07T05:29:45.203Z,100.00
2023-04-07T05:32:12.906Z,100.00
2023-04-07T05:34:41.198Z,100.00
2023-04-07T05:37:08.957Z,100.00
2023-04-07T05:39:36.625Z,100.00
2023-04-07T05:42:04.343Z,100.00
2023-04-07T05:44:32.008Z,100.00
2023-04-07T05:47:01.194Z,100.00
2023-04-07T05:49:28.880Z,100.00
2023-04-07T05:51:56.799Z,100.00
2023-04-07T05:54:24.463Z,100.00
2023-04-07T05:56:52.146Z,100.00
2023-04-07T05:59:19.792Z,100.00
2023-04-07T06:01:47.517Z,100.00
2023-04-07T06:04:16.725Z,100.00
2023-04-07T06:06:44.411Z,100.00
2023-04-07T06:09:12.118Z,100.00
2023-04-07T06:11:39.800Z,100.00
2023-04-07T06:14:07.465Z,100.00
2023-04-07T06:16:35.222Z,100.00
2023-04-07T06:19:02.947Z,100.00
2023-04-07T06:21:32.081Z,100.00
2023-04-07T06:23:59.865Z,100.00
2023-04-07T06:26:28.268Z,100.00
2023-04-07T06:28:56.039Z,100.00
2023-04-07T06:31:23.823Z,100.00
2023-04-07T06:33:51.639Z,100.00
2023-04-07T06:36:19.451Z,100.00
2023-04-07T06:38:48.573Z,100.00
2023-04-07T06:41:17.798Z,100.00
2023-04-07T06:43:45.853Z,100.00
2023-04-07T06:46:13.708Z,100.00
2023-04-07T06:48:41.473Z,100.00
2023-04-07T06:51:09.162Z,100.00
2023-04-07T06:53:38.345Z,100.00
2023-04-07T06:56:09.274Z,100.00
2023-04-07T06:58:37.583Z,100.00
2023-04-07T07:01:06.451Z,100.00
2023-04-07T07:03:34.531Z,100.00
2023-04-07T07:06:03.029Z,100.00
2023-04-07T07:08:30.976Z,100.00
2023-04-07T07:10:58.976Z,100.00
2023-04-07T07:13:28.319Z,100.00
2023-04-07T07:15:56.509Z,100.00
2023-04-07T07:18:24.514Z,100.00
2023-04-07T07:20:52.365Z,100.00
2023-04-07T07:23:20.046Z,100.00
2023-04-07T07:25:47.732Z,100.00
2023-04-07T07:28:15.486Z,100.00
2023-04-07T07:30:44.525Z,100.00
2023-04-07T07:33:12.270Z,100.00
2023-04-07T07:35:42.486Z,100.00
2023-04-07T07:38:10.348Z,100.00
2023-04-07T07:40:38.045Z,100.00
2023-04-07T07:43:06.138Z,100.00
2023-04-07T07:45:33.801Z,100.00
2023-04-07T07:48:03.055Z,100.00
2023-04-07T07:50:31.333Z,100.00
2023-04-07T07:52:59.362Z,100.00
2023-04-07T07:55:27.056Z,100.00
2023-04-07T07:57:54.776Z,100.00
2023-04-07T08:00:24.038Z,100.00
2023-04-07T08:02:51.816Z,100.00
2023-04-07T08:05:20.974Z,100.00
2023-04-07T08:07:48.916Z,100.00
2023-04-07T08:10:16.644Z,100.00
2023-04-07T08:12:44.546Z,100.00
2023-04-07T08:15:12.404Z,100.00
2023-04-07T08:17:40.738Z,100.00
2023-04-07T08:20:10.496Z,100.00
2023-04-07T08:22:39.591Z,100.00
2023-04-07T08:25:07.466Z,100.00
2023-04-07T08:27:35.610Z,100.00
2023-04-07T08:30:07.375Z,100.00
2023-04-07T08:32:39.232Z,100.00
2023-04-07T08:35:07.354Z,100.00
2023-04-07T08:37:36.586Z,100.00
2023-04-07T08:40:06.876Z,100.00
2023-04-07T08:42:36.260Z,100.00
2023-04-07T08:45:06.350Z,100.00
2023-04-07T08:47:36.842Z,100.00
2023-04-07T08:50:06.708Z,100.00
2023-04-07T08:52:36.550Z,100.00
2023-04-07T08:55:06.946Z,100.00
2023-04-07T08:57:35.047Z,100.00
2023-04-07T09:00:05.725Z,100.00
2023-04-07T09:02:34.669Z,100.00
2023-04-07T09:05:04.498Z,100.00
2023-04-07T09:07:33.481Z,100.00
2023-04-07T09:10:09.827Z,100.00
2023-04-07T09:12:37.645Z,100.00
2023-04-07T09:15:06.317Z,100.00
2023-04-07T09:17:34.093Z,100.00
2023-04-07T09:20:03.278Z,100.00
2023-04-07T09:22:39.088Z,100.00
2023-04-07T09:25:19.198Z,100.00
2023-04-07T09:27:56.268Z,100.00
2023-04-07T09:30:24.561Z,100.00
2023-04-07T09:32:52.445Z,100.00
2023-04-07T09:35:23.073Z,100.00
2023-04-07T09:38:04.728Z,100.00
2023-04-07T09:40:33.850Z,100.00
2023-04-07T09:43:02.639Z,100.00
2023-04-07T09:45:35.016Z,100.00
2023-04-07T09:48:07.628Z,100.00
2023-04-07T09:50:36.885Z,100.00
2023-04-07T09:53:05.149Z,100.00
2023-04-07T09:55:34.976Z,100.00
2023-04-07T09:58:05.170Z,100.00
2023-04-07T10:00:33.199Z,97.32
2023-04-07T10:03:01.892Z,90.52
2023-04-07T10:05:30.647Z,85.80
2023-04-07T10:07:58.325Z,90.94
2023-04-07T10:10:27.141Z,93.19
2023-04-07T10:13:01.319Z,92.98
2023-04-07T10:15:29.068Z,90.69
2023-04-07T10:17:57.853Z,89.25
2023-04-07T10:20:26.171Z,88.78
2023-04-07T10:22:56.941Z,83.04
2023-04-07T10:25:26.106Z,82.04
2023-04-07T10:28:00.375Z,84.02
2023-04-07T10:30:31.700Z,81.46
2023-04-07T10:33:00.440Z,80.76
2023-04-07T10:35:28.568Z,78.27
2023-04-07T10:38:15.168Z,83.44
2023-04-07T10:40:43.968Z,83.03
2023-04-07T10:43:13.726Z,84.18
2023-04-07T10:45:59.586Z,84.18
2023-04-07T10:48:33.149Z,82.93
2023-04-07T10:51:17.890Z,80.65
2023-04-07T10:54:20.385Z,80.73
2023-04-07T10:57:10.200Z,84.53
2023-04-07T10:59:41.158Z,84.96
2023-04-07T11:02:35.054Z,78.98
2023-04-07T11:05:03.965Z,78.87
2023-04-07T11:07:53.952Z,74.56
2023-04-07T11:10:23.027Z,76.63
2023-04-07T11:13:06.215Z,77.51
2023-04-07T11:15:39.661Z,77.73
2023-04-07T11:18:10.719Z,79.95
2023-04-07T11:20:47.387Z,83.32
2023-04-07T11:23:16.465Z,83.25
2023-04-07T11:25:46.139Z,85.31
2023-04-07T11:28:14.695Z,81.30
2023-04-07T11:30:51.467Z,80.75
2023-04-07T11:33:21.431Z,78.63
2023-04-07T11:35:53.872Z,78.40
2023-04-07T11:38:22.181Z,80.35
2023-04-07T11:40:50.179Z,77.65
2023-04-07T11:43:20.075Z,79.23
2023-04-07T11:46:05.006Z,78.24
2023-04-07T11:48:34.319Z,76.67
2023-04-07T11:51:03.192Z,76.54
2023-04-07T11:53:33.446Z,70.37
2023-04-07T11:56:02.900Z,71.53
2023-04-07T11:58:30.708Z,68.94
2023-04-07T12:01:04.938Z,64.99
2023-04-07T12:03:33.378Z,66.35
2023-04-07T12:06:01.520Z,72.35
2023-04-07T12:08:42.980Z,71.58
2023-04-07T12:11:10.909Z,71.40
2023-04-07T12:13:38.976Z,70.65
2023-04-07T12:16:08.259Z,68.86
2023-04-07T12:18:36.550Z,69.87
2023-04-07T12:21:04.702Z,68.75
2023-04-07T12:23:32.442Z,74.18
2023-04-07T12:26:00.127Z,71.10
2023-04-07T12:28:27.784Z,66.51
2023-04-07T12:30:55.541Z,69.77
2023-04-07T12:33:24.589Z,65.85
2023-04-07T12:35:52.439Z,67.59
2023-04-07T12:38:20.170Z,72.72
2023-04-07T12:40:47.818Z,72.95
2023-04-07T12:43:15.498Z,69.40
2023-04-07T12:45:43.247Z,72.77
2023-04-07T12:48:11.054Z,71.36
2023-04-07T12:50:42.368Z,67.48
2023-04-07T12:53:10.018Z,70.81
2023-04-07T12:55:37.704Z,71.54
2023-04-07T12:58:05.722Z,73.50
2023-04-07T13:00:33.378Z,75.81
2023-04-07T13:03:01.211Z,77.81
2023-04-07T13:05:30.399Z,78.37
2023-04-07T13:07:59.689Z,77.17
2023-04-07T13:10:27.417Z,78.71
2023-04-07T13:12:55.240Z,78.00
2023-04-07T13:15:22.953Z,78.12
2023-04-07T13:17:50.663Z,80.88
2023-04-07T13:20:20.733Z,80.39
2023-04-07T13:22:52.097Z,79.40
2023-04-07T13:25:32.626Z,81.85
2023-04-07T13:28:00.562Z,82.89
2023-04-07T13:30:28.566Z,78.48
2023-04-07T13:32:56.341Z,82.10
2023-04-07T13:35:24.271Z,80.17
2023-04-07T13:37:51.901Z,83.91
2023-04-07T13:40:19.671Z,81.72
2023-04-07T13:42:48.691Z,82.70
2023-04-07T13:45:16.430Z,83.89
2023-04-07T13:47:44.130Z,84.60
2023-04-07T13:50:11.867Z,82.34
2023-04-07T13:52:39.614Z,83.19
2023-04-07T13:55:08.013Z,83.63
2023-04-07T13:57:35.795Z,87.77
2023-04-07T14:00:07.188Z,87.18
2023-04-07T14:02:35.571Z,85.28
2023-04-07T14:05:03.412Z,85.05
2023-04-07T14:07:31.119Z,85.11
2023-04-07T14:09:58.768Z,85.87
2023-04-07T14:12:26.500Z,87.49
2023-04-07T14:14:54.868Z,87.51
2023-04-07T14:17:23.914Z,87.14
2023-04-07T14:19:51.605Z,84.31
2023-04-07T14:22:19.983Z,85.64
2023-04-07T14:24:47.641Z,86.05
2023-04-07T14:27:20.672Z,88.25
2023-04-07T14:29:48.680Z,89.69
2023-04-07T14:32:16.538Z,84.43
2023-04-07T14:34:45.592Z,84.78
2023-04-07T14:37:14.107Z,85.26
2023-04-07T14:39:45.900Z,86.75
2023-04-07T14:42:23.422Z,85.83
2023-04-07T14:44:51.161Z,86.56
2023-04-07T14:47:18.844Z,87.89
2023-04-07T14:49:47.890Z,85.87
2023-04-07T14:52:15.587Z,86.98
2023-04-07T14:54:43.254Z,89.08
2023-04-07T14:57:11.551Z,91.55
2023-04-07T14:59:39.276Z,92.14
2023-04-07T15:02:07.445Z,95.55
2023-04-07T15:04:35.303Z,97.81
2023-04-07T15:07:13.091Z,98.08
2023-04-07T15:09:40.760Z,94.61
2023-04-07T15:12:08.439Z,95.17
2023-04-07T15:14:36.098Z,93.60
2023-04-07T15:17:03.758Z,99.69
2023-04-07T15:19:31.421Z,100.00
2023-04-07T15:21:59.042Z,100.00
2023-04-07T15:24:28.095Z,100.00
2023-04-07T15:26:55.768Z,100.00
2023-04-07T15:29:23.503Z,100.00
2023-04-07T15:31:51.396Z,100.00
2023-04-07T15:34:19.117Z,100.00
2023-04-07T15:36:46.789Z,100.00
2023-04-07T15:39:14.861Z,100.00
2023-04-07T15:41:43.967Z,100.00
2023-04-07T15:44:17.918Z,100.00
2023-04-07T15:46:45.656Z,100.00
2023-04-07T15:49:13.642Z,100.00
2023-04-07T15:51:41.301Z,100.00
2023-04-07T15:54:09.007Z,100.00
2023-04-07T15:56:36.648Z,100.00
2023-04-07T15:59:05.704Z,100.00
2023-04-07T16:01:33.964Z,100.00
2023-04-07T16:04:01.942Z,100.00
2023-04-07T16:06:29.726Z,100.00
2023-04-07T16:08:57.449Z,100.00
2023-04-07T16:11:25.689Z,100.00
2023-04-07T16:13:53.435Z,100.00
2023-04-07T16:16:22.562Z,100.00
2023-04-07T16:18:51.834Z,100.00
2023-04-07T16:21:19.565Z,100.00
2023-04-07T16:23:47.750Z,100.00
2023-04-07T16:26:15.611Z,100.00
2023-04-07T16:28:44.256Z,100.00
2023-04-07T16:31:18.728Z,100.00
2023-04-07T16:33:47.814Z,100.00
2023-04-07T16:36:15.686Z,100.00
2023-04-07T16:38:46.376Z,100.00
2023-04-07T16:41:16.126Z,100.00
2023-04-07T16:43:43.780Z,100.00
2023-04-07T16:46:11.499Z,100.00
2023-04-07T16:48:39.190Z,100.00
2023-04-07T16:51:08.230Z,100.00
2023-04-07T16:53:35.971Z,100.00
2023-04-07T16:56:03.846Z,100.00
2023-04-07T16:58:31.564Z,100.00
2023-04-07T17:00:59.320Z,100.00
2023-04-07T17:03:27.235Z,100.00
2023-04-07T17:05:55.061Z,100.00
2023-04-07T17:08:25.699Z,100.00
2023-04-07T17:10:53.360Z,100.00
2023-04-07T17:13:21.172Z,100.00
2023-04-07T17:15:48.883Z,100.00
2023-04-07T17:18:16.587Z,100.00
2023-04-07T17:20:44.253Z,100.00
2023-04-07T17:23:12.159Z,100.00
2023-04-07T17:25:41.289Z,100.00
2023-04-07T17:28:08.968Z,100.00
2023-04-07T17:30:37.461Z,100.00
2023-04-07T17:33:05.271Z,100.00
2023-04-07T17:35:33.022Z,100.00
2023-04-07T17:38:02.616Z,100.00
2023-04-07T17:40:30.345Z,100.00
2023-04-07T17:43:00.174Z,100.00
2023-04-07T17:45:27.928Z,100.00
2023-04-07T17:47:56.054Z,100.00
2023-04-07T17:50:23.796Z,100.00
2023-04-07T17:52:52.013Z,100.00
2023-04-07T17:55:19.945Z,100.00
2023-04-07T17:57:47.675Z,100.00
2023-04-07T18:00:17.267Z,100.00
2023-04-07T18:02:45.892Z,100.00
2023-04-07T18:05:14.342Z,100.00
2023-04-07T18:07:42.080Z,100.00
2023-04-07T18:10:11.117Z,100.00
2023-04-07T18:12:39.446Z,100.00
2023-04-07T18:15:08.640Z,100.00
2023-04-07T18:17:37.951Z,100.00
2023-04-07T18:20:06.912Z,100.00
2023-04-07T18:22:34.966Z,100.00
2023-04-07T18:25:02.970Z,100.00
2023-04-07T18:27:31.020Z,100.00
2023-04-07T18:29:58.693Z,100.00
2023-04-07T18:32:26.579Z,100.00
2023-04-07T18:34:55.855Z,100.00
2023-04-07T18:37:23.619Z,100.00
2023-04-07T18:39:52.086Z,100.00
2023-04-07T18:42:19.894Z,100.00
2023-04-07T18:44:47.560Z,100.00
2023-04-07T18:47:15.509Z,100.00
2023-04-07T18:49:43.583Z,100.00
2023-04-07T18:52:12.816Z,100.00
2023-04-07T18:54:40.781Z,100.00
2023-04-07T18:57:08.638Z,100.00
2023-04-07T18:59:36.478Z,100.00
2023-04-07T19:02:04.299Z,100.00
2023-04-07T19:04:32.055Z,100.00
2023-04-07T19:07:00.004Z,100.00
2023-04-07T19:09:29.543Z,100.00
2023-04-07T19:11:57.901Z,100.00
2023-04-07T19:14:25.747Z,100.00
2023-04-07T19:16:53.630Z,100.00
2023-04-07T19:19:21.458Z,100.00
2023-04-07T19:21:49.232Z,100.00
2023-04-07T19:24:16.970Z,100.00
2023-04-07T19:26:46.269Z,100.00
2023-04-07T19:29:14.065Z,100.00
2023-04-07T19:31:41.803Z,100.00
2023-04-07T19:34:09.514Z,100.00
2023-04-07T19:36:37.253Z,100.00
2023-04-07T19:39:05.379Z,100.00
2023-04-07T19:41:33.231Z,100.00
2023-04-07T19:44:02.381Z,100.00
2023-04-07T19:46:30.118Z,100.00
2023-04-07T19:48:58.142Z,100.00
2023-04-07T19:51:25.967Z,100.00
2023-04-07T19:53:53.747Z,100.00
2023-04-07T19:56:21.428Z,100.00
2023-04-07T19:58:49.280Z,100.00
2023-04-07T20:01:19.163Z,100.00
2023-04-07T20:03:47.228Z,100.00
2023-04-07T20:06:15.284Z,100.00
2023-04-07T20:08:43.279Z,100.00
2023-04-07T20:11:12.766Z,100.00
2023-04-07T20:13:40.672Z,100.00
2023-04-07T20:16:08.594Z,100.00
2023-04-07T20:18:37.764Z,100.00
2023-04-07T20:21:06.891Z,100.00
2023-04-07T20:23:35.527Z,100.00
2023-04-07T20:26:03.297Z,100.00
2023-04-07T20:28:31.851Z,100.00
2023-04-07T20:31:00.137Z,100.00
2023-04-07T20:33:28.067Z,100.00
2023-04-07T20:35:57.236Z,100.00
2023-04-07T20:38:25.313Z,100.00
2023-04-07T20:40:53.251Z,100.00
2023-04-07T20:43:23.412Z,100.00
2023-04-07T20:45:52.154Z,100.00
2023-04-07T20:48:23.857Z,100.00
2023-04-07T20:50:51.997Z,100.00
2023-04-07T20:53:21.445Z,100.00
2023-04-07T20:55:49.394Z,100.00
2023-04-07T20:58:18.549Z,100.00
2023-04-07T21:00:46.800Z,100.00
2023-04-07T21:03:15.069Z,100.00
2023-04-07T21:05:43.451Z,100.00
2023-04-07T21:08:13.223Z,100.00
2023-04-07T21:10:43.449Z,100.00
2023-04-07T21:13:11.230Z,100.00
2023-04-07T21:15:39.054Z,100.00
2023-04-07T21:18:06.934Z,100.00
2023-04-07T21:20:36.822Z,100.00
2023-04-07T21:23:05.490Z,100.00
2023-04-07T21:25:33.217Z,100.00
2023-04-07T21:28:02.284Z,100.00
2023-04-07T21:30:30.001Z,100.00
2023-04-07T21:32:57.804Z,100.00
2023-04-07T21:35:27.847Z,100.00
2023-04-07T21:37:55.718Z,100.00
2023-04-07T21:40:23.597Z,100.00
2023-04-07T21:42:52.089Z,100.00
2023-04-07T21:45:21.138Z,100.00
2023-04-07T21:47:48.821Z,100.00
2023-04-07T21:50:16.858Z,100.00
2023-04-07T21:52:44.623Z,100.00
2023-04-07T21:55:12.557Z,100.00
2023-04-07T21:57:40.283Z,100.00
2023-04-07T22:00:09.491Z,100.00
2023-04-07T22:02:38.907Z,100.00
2023-04-07T22:05:07.342Z,100.00
2023-04-07T22:07:35.071Z,100.00
2023-04-07T22:10:02.882Z,100.00
2023-04-07T22:12:30.660Z,100.00
2023-04-07T22:14:58.405Z,100.00
2023-04-07T22:17:26.654Z,100.00
2023-04-07T22:19:56.003Z,100.00
2023-04-07T22:22:23.732Z,100.00
2023-04-07T22:24:51.428Z,100.00
2023-04-07T22:27:19.150Z,100.00
2023-04-07T22:29:46.868Z,100.00
2023-04-07T22:32:14.810Z,100.00
2023-04-07T22:34:42.445Z,100.00
2023-04-07T22:37:11.526Z,100.00
2023-04-07T22:39:39.334Z,100.00
2023-04-07T22:42:07.240Z,100.00
2023-04-07T22:44:35.006Z,100.00
2023-04-07T22:47:02.848Z,100.00
2023-04-07T22:49:31.323Z,100.00
2023-04-07T22:51:59.146Z,100.00
2023-04-07T22:59:22.224Z,100.00
2023-04-07T23:01:50.007Z,100.00
2023-04-07T23:04:18.106Z,100.00
2023-04-07T23:06:45.810Z,100.00
2023-04-07T23:09:13.470Z,100.00
2023-04-07T23:11:41.228Z,100.00
2023-04-07T23:14:08.884Z,100.00
2023-04-07T23:16:37.978Z,100.00
2023-04-07T23:19:06.028Z,100.00
2023-04-07T23:21:33.741Z,100.00
2023-04-07T23:24:01.717Z,100.00
2023-04-07T23:26:29.481Z,100.00
2023-04-07T23:28:57.134Z,100.00
2023-04-07T23:31:24.919Z,100.00
2023-04-07T23:33:54.063Z,100.00
2023-04-07T23:36:21.813Z,100.00
2023-04-07T23:38:49.598Z,100.00
2023-04-07T23:41:17.447Z,100.00
2023-04-07T23:43:45.573Z,100.00
2023-04-07T23:46:13.293Z,100.00
2023-04-07T23:48:41.039Z,100.00
2023-04-07T23:51:10.113Z,100.00
2023-04-07T23:53:37.853Z,100.00
2023-04-07T23:56:05.845Z,100.00
2023-04-07T23:58:33.626Z,100.00
